Time;durP1;ratioP1;P1;durP2;ratioP2;P2;SDS_P1;SDS_P2;PMS_P1;PMS_P2;Temp;Humidity;BMP_temperature;BMP_pressure;BME280_temperature;BME280_humidity;BME280_pressure;Samples;Min_cycle;Max_cycle;Signal;HPM_P1;HPM_P2
2022/01/01 00:02:13;;;;;;;52.95;38.65;;;10.20;99.90;;;;;;5073370;28;20247;-65
2022/01/01 00:04:40;;;;;;;45.83;32.97;;;10.20;99.90;;;;;;5073805;28;20658;-64
2022/01/01 00:07:05;;;;;;;44.05;30.98;;;10.30;99.90;;;;;;5073529;28;20196;-64
2022/01/01 00:09:32;;;;;;;52.13;33.45;;;10.30;99.90;;;;;;5071746;28;20193;-65
2022/01/01 00:11:58;;;;;;;45.20;32.73;;;10.40;99.90;;;;;;5053507;28;20177;-66
2022/01/01 00:14:24;;;;;;;40.73;30.60;;;10.50;99.90;;;;;;5055723;28;20513;-63
2022/01/01 00:16:49;;;;;;;36.17;25.17;;;10.60;99.90;;;;;;5069371;28;20276;-64
2022/01/01 00:19:15;;;;;;;35.17;22.47;;;10.60;99.90;;;;;;5075877;28;20201;-65
2022/01/01 00:21:41;;;;;;;28.60;22.20;;;10.60;99.90;;;;;;5056980;28;20576;-65
2022/01/01 00:24:07;;;;;;;33.15;22.60;;;10.70;99.90;;;;;;5058407;28;20172;-66
2022/01/01 00:26:32;;;;;;;31.57;20.70;;;10.70;99.90;;;;;;5073363;28;20193;-66
2022/01/01 00:28:58;;;;;;;37.97;21.87;;;10.70;99.90;;;;;;5067303;28;21045;-66
2022/01/01 00:31:25;;;;;;;29.43;19.43;;;10.80;99.90;;;;;;5065719;28;20540;-65
2022/01/01 00:33:50;;;;;;;20.80;15.93;;;10.80;99.90;;;;;;5075311;28;20252;-66
2022/01/01 00:36:16;;;;;;;24.10;16.37;;;10.80;99.90;;;;;;5072999;28;20284;-65
2022/01/01 00:38:42;;;;;;;23.10;17.07;;;10.90;99.90;;;;;;5073530;28;20211;-65
2022/01/01 00:41:07;;;;;;;27.93;18.33;;;10.90;99.90;;;;;;5072752;28;20185;-65
2022/01/01 00:43:33;;;;;;;23.73;16.63;;;10.90;99.90;;;;;;5072803;28;20180;-64
2022/01/01 00:45:59;;;;;;;23.30;17.30;;;10.90;99.90;;;;;;5073210;28;20174;-65
2022/01/01 00:48:24;;;;;;;24.40;16.67;;;11.00;99.90;;;;;;5071455;28;20200;-65
2022/01/01 00:50:50;;;;;;;21.17;15.90;;;11.00;99.90;;;;;;5073116;28;20287;-65
2022/01/01 00:53:16;;;;;;;24.50;15.20;;;11.00;99.90;;;;;;5072972;28;20523;-64
2022/01/01 00:55:42;;;;;;;24.13;17.33;;;11.10;99.90;;;;;;5073255;28;20512;-64
2022/01/01 00:58:07;;;;;;;33.17;21.20;;;11.10;99.90;;;;;;5071886;28;20200;-65
2022/01/01 01:00:33;;;;;;;26.70;17.70;;;11.10;99.90;;;;;;5053076;28;20953;-65
2022/01/01 01:02:59;;;;;;;26.17;17.60;;;11.10;99.90;;;;;;5052598;28;20551;-65
2022/01/01 01:05:25;;;;;;;27.37;19.57;;;11.10;99.90;;;;;;5053306;28;20186;-64
2022/01/01 01:07:50;;;;;;;24.23;16.90;;;11.10;99.90;;;;;;5052585;28;20213;-64
2022/01/01 01:10:16;;;;;;;23.83;17.50;;;11.00;99.90;;;;;;5053171;28;20180;-64
2022/01/01 01:12:48;;;;;;;24.80;16.40;;;11.00;99.90;;;;;;5052760;28;20162;-65
2022/01/01 01:15:18;;;;;;;22.20;15.10;;;11.00;99.90;;;;;;5053148;28;20497;-64
2022/01/01 01:17:49;;;;;;;26.20;16.63;;;11.00;99.90;;;;;;5052793;28;20595;-65
2022/01/01 01:20:15;;;;;;;31.92;18.73;;;10.90;99.90;;;;;;5053121;28;20231;-65
2022/01/01 01:22:41;;;;;;;26.83;17.52;;;10.80;99.90;;;;;;5052549;28;20170;-63
2022/01/01 01:25:07;;;;;;;30.80;21.20;;;10.80;99.90;;;;;;5052930;28;20182;-64
2022/01/01 01:27:35;;;;;;;28.30;20.40;;;10.70;99.90;;;;;;5052823;28;20267;-64
2022/01/01 01:30:03;;;;;;;27.83;20.02;;;10.60;99.90;;;;;;5052906;28;20180;-65
2022/01/01 01:32:29;;;;;;;26.42;17.42;;;10.60;99.90;;;;;;5052509;28;20528;-65
2022/01/01 01:34:54;;;;;;;31.33;21.83;;;10.60;99.90;;;;;;5051567;28;20174;-64
2022/01/01 01:37:21;;;;;;;29.63;19.43;;;10.60;99.90;;;;;;5051671;28;20247;-64
2022/01/01 01:39:47;;;;;;;36.58;21.55;;;10.50;99.90;;;;;;5052833;28;20272;-64
2022/01/01 01:42:14;;;;;;;31.03;20.63;;;10.50;99.90;;;;;;5052367;28;20216;-64
2022/01/01 01:44:43;;;;;;;34.40;22.08;;;10.40;99.90;;;;;;5052814;28;20211;-64
2022/01/01 01:47:16;;;;;;;29.23;20.55;;;10.40;99.90;;;;;;5052521;28;20212;-64
2022/01/01 01:49:44;;;;;;;27.63;20.08;;;10.40;99.90;;;;;;5052792;28;20205;-64
2022/01/01 01:52:12;;;;;;;32.10;20.17;;;10.40;99.90;;;;;;5052169;28;20177;-64
2022/01/01 01:54:38;;;;;;;25.90;19.42;;;10.40;99.90;;;;;;5055622;28;20215;-64
2022/01/01 01:57:04;;;;;;;26.35;18.52;;;10.40;99.90;;;;;;5056018;28;20221;-65
2022/01/01 01:59:30;;;;;;;26.13;19.67;;;10.50;99.90;;;;;;5068815;28;20566;-64
2022/01/01 02:01:56;;;;;;;27.10;17.98;;;10.50;99.90;;;;;;5075874;28;20489;-64
2022/01/01 02:04:21;;;;;;;29.50;20.80;;;10.50;99.90;;;;;;5076162;28;20216;-64
2022/01/01 02:06:48;;;;;;;24.27;17.70;;;10.50;99.90;;;;;;5075992;28;20250;-65
2022/01/01 02:09:15;;;;;;;30.80;18.60;;;10.50;99.90;;;;;;5076160;28;20567;-65
2022/01/01 02:11:41;;;;;;;30.33;19.67;;;10.60;99.90;;;;;;5075613;28;20527;-65
2022/01/01 02:14:21;;;;;;;31.38;22.70;;;10.60;99.90;;;;;;5075955;28;20180;-64
2022/01/01 02:19:26;;;;;;;31.90;21.23;;;10.60;99.90;;;;;;5076092;28;20244;-64
2022/01/01 02:21:54;;;;;;;27.95;20.05;;;10.60;99.90;;;;;;5075478;28;20169;-64
2022/01/01 02:24:20;;;;;;;26.42;17.40;;;10.70;99.90;;;;;;5075793;28;20582;-64
2022/01/01 02:26:46;;;;;;;32.33;20.60;;;10.70;99.90;;;;;;5075519;28;20268;-64
2022/01/01 02:29:12;;;;;;;27.10;19.00;;;10.60;99.90;;;;;;5074256;28;20260;-64
2022/01/01 02:31:37;;;;;;;27.03;18.37;;;10.60;99.90;;;;;;5075227;28;20172;-64
2022/01/01 02:34:07;;;;;;;27.53;17.83;;;10.70;99.90;;;;;;5075421;28;20173;-64
2022/01/01 02:36:41;;;;;;;25.25;18.20;;;10.70;99.90;;;;;;5075485;28;20188;-64
2022/01/01 02:39:19;;;;;;;31.05;21.33;;;10.80;99.90;;;;;;5075519;28;20166;-64
2022/01/01 02:41:48;;;;;;;31.05;22.13;;;10.70;99.90;;;;;;5075048;28;20256;-64
2022/01/01 02:44:14;;;;;;;29.48;20.65;;;10.70;99.90;;;;;;5074209;28;20227;-64
2022/01/01 02:46:40;;;;;;;30.50;22.05;;;10.80;99.90;;;;;;5075280;28;20197;-64
2022/01/01 02:49:06;;;;;;;29.40;17.63;;;10.70;99.90;;;;;;5075438;28;20164;-64
2022/01/01 02:51:32;;;;;;;31.87;19.67;;;10.70;99.90;;;;;;5074936;28;20639;-65
2022/01/01 02:53:58;;;;;;;33.42;20.77;;;10.60;99.90;;;;;;5074966;28;20177;-64
2022/01/01 02:56:25;;;;;;;24.27;17.87;;;10.60;99.90;;;;;;5075106;28;20187;-64
2022/01/01 02:58:52;;;;;;;26.20;18.38;;;10.70;99.90;;;;;;5067775;28;20416;-64
2022/01/01 03:01:18;;;;;;;35.97;20.42;;;10.70;99.90;;;;;;5054670;28;20231;-65
2022/01/01 03:03:43;;;;;;;28.33;19.50;;;10.60;99.90;;;;;;5054777;28;20676;-65
2022/01/01 03:06:09;;;;;;;26.60;17.70;;;10.60;99.90;;;;;;5053880;28;20404;-65
2022/01/01 03:08:36;;;;;;;30.67;19.85;;;10.70;99.90;;;;;;5054524;28;20506;-65
2022/01/01 03:11:02;;;;;;;26.58;19.50;;;10.70;99.90;;;;;;5054495;28;20616;-66
2022/01/01 03:13:29;;;;;;;22.00;17.20;;;10.70;99.90;;;;;;5053380;28;20182;-66
2022/01/01 03:15:55;;;;;;;32.80;19.63;;;10.70;99.90;;;;;;5054613;28;20171;-65
2022/01/01 03:18:20;;;;;;;23.50;18.60;;;10.80;99.90;;;;;;5054679;28;20178;-65
2022/01/01 03:20:46;;;;;;;28.97;19.20;;;10.70;99.90;;;;;;5053244;28;20488;-64
2022/01/01 03:23:12;;;;;;;32.00;20.57;;;10.70;99.90;;;;;;5054097;28;20181;-64
2022/01/01 03:25:37;;;;;;;27.97;17.10;;;10.70;99.90;;;;;;5054516;28;20169;-64
2022/01/01 03:28:04;;;;;;;30.80;20.87;;;10.70;99.90;;;;;;5054363;28;20212;-63
2022/01/01 03:30:29;;;;;;;29.17;19.95;;;10.70;99.90;;;;;;5054443;28;20172;-64
2022/01/01 03:32:55;;;;;;;29.30;17.70;;;10.80;99.90;;;;;;5053739;28;20644;-64
2022/01/01 03:35:21;;;;;;;25.47;18.60;;;10.80;99.90;;;;;;5054251;28;20539;-64
2022/01/01 03:37:46;;;;;;;20.17;17.10;;;10.80;99.90;;;;;;5054134;28;20281;-65
2022/01/01 03:40:12;;;;;;;25.40;16.27;;;10.80;99.90;;;;;;5054266;28;20264;-64
2022/01/01 03:42:38;;;;;;;31.30;21.70;;;10.80;99.90;;;;;;5052523;28;20176;-63
2022/01/01 03:45:06;;;;;;;27.40;19.00;;;10.80;99.90;;;;;;5054217;28;20431;-64
2022/01/01 03:47:32;;;;;;;30.15;18.23;;;10.80;99.90;;;;;;5053801;28;20205;-63
2022/01/01 03:49:58;;;;;;;29.93;19.13;;;10.80;99.90;;;;;;5053960;28;20222;-64
2022/01/01 03:52:23;;;;;;;37.50;23.30;;;10.80;99.90;;;;;;5053516;28;20170;-64
2022/01/01 03:54:49;;;;;;;41.60;25.07;;;10.70;99.90;;;;;;5053728;28;20165;-64
2022/01/01 03:57:14;;;;;;;34.03;22.00;;;10.60;99.90;;;;;;5053780;28;20339;-64
2022/01/01 03:59:40;;;;;;;23.90;20.27;;;10.50;99.90;;;;;;5066685;28;20214;-64
2022/01/01 04:02:06;;;;;;;32.40;21.37;;;10.40;99.90;;;;;;5073236;28;20173;-64
2022/01/01 04:04:31;;;;;;;28.47;17.87;;;10.30;99.90;;;;;;5072299;28;20672;-65
2022/01/01 04:06:57;;;;;;;26.70;19.97;;;10.30;99.90;;;;;;5073690;28;20307;-64
2022/01/01 04:09:23;;;;;;;25.30;17.73;;;10.20;99.90;;;;;;5073507;28;20168;-66
2022/01/01 04:11:51;;;;;;;23.97;17.67;;;10.20;99.90;;;;;;5072944;28;20177;-64
2022/01/01 04:14:17;;;;;;;32.25;22.15;;;10.20;99.90;;;;;;5073480;28;20417;-64
2022/01/01 04:16:43;;;;;;;35.87;21.57;;;10.10;99.90;;;;;;5073328;28;20197;-65
2022/01/01 04:19:09;;;;;;;26.57;20.37;;;10.10;99.90;;;;;;5073275;28;20535;-64
2022/01/01 04:21:35;;;;;;;32.50;20.67;;;10.10;99.90;;;;;;5072912;28;20399;-64
2022/01/01 04:24:02;;;;;;;36.10;21.90;;;10.10;99.90;;;;;;5073420;28;20402;-64
2022/01/01 04:26:28;;;;;;;24.35;19.10;;;10.10;99.90;;;;;;5073523;28;20671;-64
2022/01/01 04:28:54;;;;;;;33.22;20.30;;;10.10;99.90;;;;;;5073412;28;20208;-64
2022/01/01 04:31:19;;;;;;;24.90;17.17;;;10.10;99.90;;;;;;5073166;28;20298;-64
2022/01/01 04:33:45;;;;;;;23.30;15.90;;;10.10;99.90;;;;;;5072200;28;20173;-63
2022/01/01 04:36:11;;;;;;;24.20;16.97;;;10.10;99.90;;;;;;5073207;28;20177;-64
2022/01/01 04:38:39;;;;;;;20.85;14.82;;;10.10;99.90;;;;;;5073223;28;20290;-63
2022/01/01 04:41:07;;;;;;;17.67;14.60;;;10.20;99.90;;;;;;5072992;28;20177;-67
2022/01/01 04:43:33;;;;;;;19.55;15.63;;;10.20;99.90;;;;;;5073405;28;20175;-64
2022/01/01 04:45:59;;;;;;;27.20;17.07;;;10.20;99.90;;;;;;5073129;28;20172;-64
2022/01/01 04:48:24;;;;;;;22.08;15.57;;;10.20;99.90;;;;;;5072852;28;20567;-64
2022/01/01 04:50:50;;;;;;;18.40;14.20;;;10.20;99.90;;;;;;5073412;28;20168;-64
2022/01/01 04:53:18;;;;;;;19.63;14.07;;;10.20;99.90;;;;;;5073076;28;20555;-63
2022/01/01 04:55:45;;;;;;;26.10;14.63;;;10.30;99.90;;;;;;5073217;28;20160;-63
2022/01/01 04:58:10;;;;;;;20.15;12.73;;;10.20;99.90;;;;;;5071399;28;20193;-64
2022/01/01 05:00:36;;;;;;;19.10;14.47;;;10.20;99.90;;;;;;5053148;28;20176;-64
2022/01/01 05:03:02;;;;;;;21.60;14.47;;;10.20;99.90;;;;;;5052753;28;20169;-63
2022/01/01 05:05:27;;;;;;;24.57;14.80;;;10.20;99.90;;;;;;5053261;28;20181;-65
2022/01/01 05:07:53;;;;;;;19.37;12.60;;;10.20;99.90;;;;;;5052897;28;20447;-64
2022/01/01 05:10:18;;;;;;;16.30;10.33;;;10.10;99.90;;;;;;5053135;28;20177;-64
2022/01/01 05:12:44;;;;;;;18.60;11.57;;;10.10;99.90;;;;;;5052641;28;20224;-63
2022/01/01 05:15:10;;;;;;;12.00;9.67;;;10.00;99.90;;;;;;5051894;28;20204;-64
2022/01/01 05:17:35;;;;;;;13.77;10.00;;;10.00;99.90;;;;;;5052830;28;20682;-64
2022/01/01 05:20:03;;;;;;;15.10;9.73;;;9.90;99.90;;;;;;5052942;28;20182;-64
2022/01/01 05:22:29;;;;;;;14.77;11.40;;;9.80;99.90;;;;;;5052720;28;20628;-64
2022/01/01 05:24:59;;;;;;;17.30;13.67;;;9.80;99.90;;;;;;5052962;28;20188;-64
2022/01/01 05:27:28;;;;;;;18.83;12.95;;;9.70;99.90;;;;;;5052903;28;20658;-63
2022/01/01 05:29:54;;;;;;;19.05;12.70;;;9.60;99.90;;;;;;5057052;28;20177;-64
2022/01/01 05:32:20;;;;;;;20.30;13.90;;;9.50;99.90;;;;;;5056330;28;20166;-64
2022/01/01 05:34:45;;;;;;;21.07;12.23;;;9.50;99.90;;;;;;5056678;28;20599;-64
2022/01/01 05:37:11;;;;;;;22.17;14.43;;;9.40;99.90;;;;;;5056686;28;20201;-64
2022/01/01 05:39:37;;;;;;;16.07;12.10;;;9.40;99.90;;;;;;5055236;28;20184;-65
2022/01/01 05:42:03;;;;;;;12.45;9.95;;;9.30;99.90;;;;;;5056023;28;20434;-64
2022/01/01 05:44:29;;;;;;;15.23;12.18;;;9.20;99.90;;;;;;5056296;28;20666;-64
2022/01/01 05:46:55;;;;;;;16.27;11.83;;;9.20;99.90;;;;;;5056422;28;20193;-64
2022/01/01 05:49:22;;;;;;;11.70;10.10;;;9.10;99.90;;;;;;5056267;28;20438;-64
2022/01/01 05:51:47;;;;;;;15.35;13.75;;;9.10;99.90;;;;;;5055882;28;20173;-64
2022/01/01 05:54:13;;;;;;;16.27;11.90;;;9.00;99.90;;;;;;5056379;28;20243;-65
2022/01/01 05:56:39;;;;;;;16.60;11.60;;;9.00;99.90;;;;;;5056192;28;20259;-66
2022/01/01 05:59:05;;;;;;;13.20;10.60;;;9.00;99.90;;;;;;5065445;28;20255;-64
2022/01/01 06:01:30;;;;;;;14.80;12.40;;;9.00;99.90;;;;;;5075748;28;20642;-64
2022/01/01 06:03:56;;;;;;;13.60;10.27;;;9.00;99.90;;;;;;5076107;28;20434;-64
2022/01/01 06:06:22;;;;;;;12.30;9.47;;;9.00;99.90;;;;;;5076301;28;20674;-64
2022/01/01 06:08:48;;;;;;;15.68;9.98;;;9.00;99.90;;;;;;5076116;28;20250;-64
2022/01/01 06:11:13;;;;;;;11.67;7.40;;;9.20;99.90;;;;;;5075702;28;20177;-66
2022/01/01 06:13:39;;;;;;;11.27;7.60;;;9.20;99.90;;;;;;5076266;28;20165;-64
2022/01/01 06:16:05;;;;;;;12.50;7.63;;;9.30;99.90;;;;;;5075883;28;20185;-64
2022/01/01 06:18:30;;;;;;;12.83;9.40;;;9.40;99.90;;;;;;5075956;28;20302;-65
2022/01/01 06:20:57;;;;;;;10.40;7.87;;;9.40;99.90;;;;;;5074534;28;20442;-64
2022/01/01 06:23:22;;;;;;;8.85;7.20;;;9.50;99.90;;;;;;5075318;28;20183;-64
2022/01/01 06:25:49;;;;;;;13.30;9.70;;;9.50;99.90;;;;;;5075652;28;20260;-66
2022/01/01 06:28:14;;;;;;;18.60;10.95;;;9.60;99.90;;;;;;5074116;28;20211;-65
2022/01/01 06:30:40;;;;;;;9.07;7.43;;;9.60;99.90;;;;;;5075951;28;20162;-64
2022/01/01 06:33:14;;;;;;;13.93;8.80;;;9.60;99.90;;;;;;5073925;28;20169;-64
2022/01/01 06:35:44;;;;;;;8.60;7.07;;;9.70;99.90;;;;;;5075697;28;20165;-65
2022/01/01 06:38:10;;;;;;;11.95;7.88;;;9.70;99.90;;;;;;5075563;28;20597;-64
2022/01/01 06:40:39;;;;;;;13.18;8.63;;;9.80;99.90;;;;;;5074164;28;20169;-65
2022/01/01 06:43:05;;;;;;;9.95;6.35;;;9.80;99.90;;;;;;5074982;28;20180;-65
2022/01/01 06:45:31;;;;;;;10.88;7.90;;;9.80;99.90;;;;;;5073959;28;20183;-64
2022/01/01 06:47:57;;;;;;;8.00;6.03;;;9.80;99.90;;;;;;5073914;28;20209;-64
2022/01/01 06:50:22;;;;;;;8.73;6.70;;;9.90;99.90;;;;;;5074098;28;20165;-65
2022/01/01 06:52:48;;;;;;;8.67;6.17;;;9.90;99.90;;;;;;5074898;28;20562;-64
2022/01/01 06:55:14;;;;;;;7.67;6.20;;;10.00;99.90;;;;;;5075004;28;20165;-64
2022/01/01 06:57:41;;;;;;;7.68;6.10;;;10.00;99.90;;;;;;5074975;28;20467;-64
2022/01/01 07:00:08;;;;;;;10.07;7.00;;;10.00;99.90;;;;;;5057086;28;20191;-64
2022/01/01 07:02:46;;;;;;;10.63;8.20;;;10.10;99.90;;;;;;5054579;28;20173;-64
2022/01/01 07:05:12;;;;;;;12.82;8.80;;;10.10;99.90;;;;;;5055089;28;20177;-64
2022/01/01 07:07:38;;;;;;;12.77;8.70;;;10.10;99.90;;;;;;5054813;28;20628;-64
2022/01/01 07:10:06;;;;;;;8.60;7.13;;;10.10;99.90;;;;;;5054714;28;20197;-63
2022/01/01 07:12:34;;;;;;;11.40;7.63;;;10.00;99.90;;;;;;5054503;28;20223;-64
2022/01/01 07:14:59;;;;;;;10.68;8.80;;;10.00;99.90;;;;;;5054870;28;20509;-64
2022/01/01 07:17:25;;;;;;;12.70;8.43;;;10.00;99.90;;;;;;5054593;28;20246;-64
2022/01/01 07:19:50;;;;;;;8.67;7.77;;;9.90;99.90;;;;;;5054795;28;20173;-64
2022/01/01 07:22:16;;;;;;;9.37;6.90;;;10.00;99.90;;;;;;5053090;28;20204;-64
2022/01/01 07:24:42;;;;;;;9.67;7.43;;;10.00;99.90;;;;;;5054542;28;20322;-64
2022/01/01 07:27:08;;;;;;;9.27;6.80;;;10.00;99.90;;;;;;5054504;28;20590;-64
2022/01/01 07:29:33;;;;;;;8.27;6.30;;;9.90;99.90;;;;;;5054812;28;20172;-64
2022/01/01 07:31:59;;;;;;;6.97;6.27;;;9.90;99.90;;;;;;5054148;28;20162;-64
2022/01/01 07:34:24;;;;;;;10.83;6.93;;;9.90;99.90;;;;;;5054445;28;20189;-63
2022/01/01 07:36:50;;;;;;;8.23;6.40;;;9.90;99.90;;;;;;5054227;28;20193;-64
2022/01/01 07:39:16;;;;;;;8.60;6.73;;;9.90;99.90;;;;;;5054125;28;20197;-64
2022/01/01 07:41:42;;;;;;;9.47;6.80;;;10.00;99.90;;;;;;5053713;28;20170;-64
2022/01/01 07:44:09;;;;;;;10.05;7.75;;;10.20;99.90;;;;;;5054184;28;20169;-64
2022/01/01 07:46:35;;;;;;;11.13;8.98;;;10.40;99.90;;;;;;5054119;28;20189;-64
2022/01/01 07:49:00;;;;;;;10.60;9.17;;;10.60;99.90;;;;;;5054058;28;20600;-64
2022/01/01 07:51:26;;;;;;;13.40;7.43;;;10.70;99.90;;;;;;5053428;28;20408;-64
2022/01/01 07:53:52;;;;;;;10.27;6.60;;;10.80;99.90;;;;;;5054214;28;20165;-66
2022/01/01 07:56:17;;;;;;;10.57;7.77;;;10.80;99.90;;;;;;5053877;28;20185;-66
2022/01/01 07:58:43;;;;;;;12.13;7.97;;;10.80;99.90;;;;;;5060261;28;20169;-65
2022/01/01 08:01:09;;;;;;;10.40;6.77;;;10.70;99.90;;;;;;5073499;28;20173;-65
2022/01/01 08:03:34;;;;;;;12.53;8.90;;;10.70;99.90;;;;;;5073721;28;20192;-65
2022/01/01 08:06:00;;;;;;;10.13;8.13;;;10.80;99.90;;;;;;5073762;28;20413;-64
2022/01/01 08:08:26;;;;;;;10.10;7.33;;;10.80;99.90;;;;;;5073528;28;20196;-65
2022/01/01 08:10:51;;;;;;;17.97;8.37;;;10.90;99.90;;;;;;5073499;28;20168;-64
2022/01/01 08:13:24;;;;;;;11.07;9.03;;;11.10;99.90;;;;;;5073316;28;20220;-64
2022/01/01 08:15:52;;;;;;;7.10;6.15;;;11.20;99.90;;;;;;5073726;28;20170;-65
2022/01/01 08:18:18;;;;;;;8.80;6.90;;;11.30;99.90;;;;;;5073209;28;20195;-64
2022/01/01 08:20:44;;;;;;;6.23;5.63;;;11.50;99.90;;;;;;5073247;28;20674;-64
2022/01/01 08:23:10;;;;;;;7.40;5.67;;;11.80;99.90;;;;;;5060042;28;20410;-64
2022/01/01 08:25:36;;;;;;;4.70;4.33;;;12.10;99.90;;;;;;5053747;28;20413;-64
2022/01/01 08:28:03;;;;;;;10.43;5.67;;;12.60;99.90;;;;;;5053264;28;20204;-64
2022/01/01 08:30:28;;;;;;;4.07;3.33;;;13.30;99.90;;;;;;5053354;28;20770;-63
2022/01/01 08:33:01;;;;;;;5.97;5.43;;;13.90;99.90;;;;;;5065241;28;20391;-67
2022/01/01 08:35:33;;;;;;;3.00;2.73;;;14.60;99.90;;;;;;5053132;28;20173;-65
2022/01/01 08:38:00;;;;;;;3.33;3.03;;;15.30;99.90;;;;;;5052966;28;20519;-65
2022/01/01 08:40:27;;;;;;;3.27;2.87;;;16.00;99.90;;;;;;5051734;28;20775;-65
2022/01/01 08:42:54;;;;;;;4.10;2.33;;;16.70;99.90;;;;;;5052705;28;20470;-65
2022/01/01 08:45:20;;;;;;;3.27;2.50;;;17.40;99.90;;;;;;5053237;28;20394;-65
2022/01/01 08:47:46;;;;;;;2.30;2.20;;;18.00;99.90;;;;;;5052842;28;20456;-65
2022/01/01 08:50:13;;;;;;;5.07;3.73;;;18.50;99.90;;;;;;5065924;28;20940;-65
2022/01/01 08:52:40;;;;;;;5.87;5.30;;;19.10;99.90;;;;;;5072329;28;20192;-66
2022/01/01 08:55:06;;;;;;;4.40;4.00;;;19.60;99.90;;;;;;5072868;28;20404;-66
2022/01/01 08:57:32;;;;;;;4.50;3.63;;;20.10;99.90;;;;;;5072733;28;20973;-65
2022/01/01 08:59:59;;;;;;;5.60;5.10;;;20.40;99.90;;;;;;5072605;28;20422;-64
2022/01/01 09:02:25;;;;;;;6.70;4.77;;;20.70;99.30;;;;;;5072507;28;20564;-65
2022/01/01 09:04:52;;;;;;;4.10;3.70;;;21.00;98.90;;;;;;5076654;28;20818;-64
2022/01/01 09:07:18;;;;;;;4.33;3.93;;;21.20;98.00;;;;;;5076800;28;20813;-63
2022/01/01 09:09:44;;;;;;;6.60;3.40;;;21.40;97.30;;;;;;5077333;28;20415;-64
2022/01/01 09:12:11;;;;;;;4.20;3.90;;;21.60;96.70;;;;;;5078716;28;20775;-64
2022/01/01 09:14:37;;;;;;;6.60;5.53;;;21.90;95.10;;;;;;5071833;28;20960;-64
2022/01/01 09:17:05;;;;;;;3.73;3.33;;;22.10;94.20;;;;;;5097212;28;20511;-63
2022/01/01 09:19:31;;;;;;;3.37;3.07;;;22.10;93.10;;;;;;5088388;28;20452;-63
2022/01/01 09:21:56;;;;;;;12.57;11.27;;;22.10;93.70;;;;;;5076311;28;20413;-63
2022/01/01 09:24:22;;;;;;;15.13;6.03;;;22.30;92.60;;;;;;5076830;28;20186;-63
2022/01/01 09:26:48;;;;;;;3.40;2.73;;;22.30;92.40;;;;;;5076369;28;20295;-63
2022/01/01 09:29:14;;;;;;;2.87;2.67;;;22.40;92.20;;;;;;5076413;28;20173;-62
2022/01/01 09:31:41;;;;;;;2.83;2.20;;;22.50;91.90;;;;;;5076279;28;20289;-62
2022/01/01 09:34:08;;;;;;;2.60;2.40;;;22.50;90.80;;;;;;5074260;28;20388;-63
2022/01/01 09:36:34;;;;;;;2.33;2.20;;;22.60;90.40;;;;;;5075781;28;20430;-61
2022/01/01 09:39:00;;;;;;;2.20;2.00;;;22.60;90.60;;;;;;5074083;28;20414;-61
2022/01/01 09:41:26;;;;;;;3.50;2.93;;;22.30;86.70;;;;;;5075391;28;20809;-64
2022/01/01 09:43:57;;;;;;;3.63;2.60;;;21.80;88.90;;;;;;5074114;28;20385;-61
2022/01/01 09:46:24;;;;;;;2.70;2.43;;;21.60;90.60;;;;;;5074805;28;20954;-63
2022/01/01 09:48:53;;;;;;;2.50;2.30;;;21.70;90.30;;;;;;5075053;28;20462;-65
2022/01/01 09:51:20;;;;;;;2.47;2.17;;;21.70;90.70;;;;;;5074767;28;20397;-68
2022/01/01 09:53:46;;;;;;;2.40;2.10;;;21.80;89.70;;;;;;5075059;28;20412;-67
2022/01/01 09:56:12;;;;;;;2.50;2.17;;;21.60;89.40;;;;;;5074876;28;20461;-68
2022/01/01 09:58:38;;;;;;;2.20;2.00;;;21.70;90.60;;;;;;5069526;28;20429;-67
2022/01/01 10:01:06;;;;;;;1.93;1.83;;;21.80;90.90;;;;;;5058053;28;20393;-64
2022/01/01 10:03:43;;;;;;;2.33;2.20;;;21.90;90.60;;;;;;5091173;28;20399;-64
2022/01/01 10:06:14;;;;;;;2.70;2.50;;;22.10;90.80;;;;;;5096117;28;20463;-64
2022/01/01 10:08:41;;;;;;;2.70;2.47;;;22.30;90.60;;;;;;5096202;28;20426;-64
2022/01/01 10:11:08;;;;;;;2.73;1.70;;;22.40;89.90;;;;;;5088204;28;20418;-64
2022/01/01 10:13:37;;;;;;;3.87;2.57;;;22.40;89.30;;;;;;5075409;28;20891;-64
2022/01/01 10:16:08;;;;;;;2.60;2.40;;;22.40;88.80;;;;;;5075566;28;20757;-64
2022/01/01 10:18:37;;;;;;;2.50;2.30;;;22.40;88.40;;;;;;5076037;28;20426;-64
2022/01/01 10:21:05;;;;;;;2.50;2.30;;;22.40;88.20;;;;;;5075457;28;20476;-63
2022/01/01 10:23:33;;;;;;;2.40;2.20;;;22.40;88.40;;;;;;5075538;28;20422;-64
2022/01/01 10:29:15;;;;;;;4.00;3.40;;;22.40;88.80;;;;;;5075083;28;20537;-63
2022/01/01 10:32:01;;;;;;;2.50;2.30;;;22.50;88.00;;;;;;5075093;28;20431;-67
2022/01/01 10:34:30;;;;;;;1.90;1.80;;;22.50;89.70;;;;;;5075427;28;20907;-64
2022/01/01 10:36:56;;;;;;;1.93;1.80;;;22.70;86.70;;;;;;5075205;28;20435;-65
2022/01/01 10:39:22;;;;;;;2.60;2.33;;;22.60;86.00;;;;;;5075236;28;20428;-65
2022/01/01 10:41:58;;;;;;;2.70;2.10;;;22.40;88.50;;;;;;5075074;28;20179;-65
2022/01/01 10:44:31;;;;;;;2.30;2.10;;;22.20;87.60;;;;;;5075259;28;20401;-64
2022/01/01 10:46:59;;;;;;;2.47;2.27;;;21.90;86.10;;;;;;5075022;28;20444;-64
2022/01/01 10:49:34;;;;;;;3.50;2.40;;;21.70;87.60;;;;;;5075043;28;20426;-63
2022/01/01 10:52:19;;;;;;;2.67;2.47;;;21.40;87.60;;;;;;5074958;28;20395;-64
2022/01/01 10:54:59;;;;;;;2.43;2.23;;;21.10;87.70;;;;;;5075154;28;20769;-63
2022/01/01 10:57:34;;;;;;;2.80;2.40;;;20.90;89.10;;;;;;5075055;28;20510;-63
2022/01/01 11:00:21;;;;;;;2.27;2.07;;;20.80;89.10;;;;;;5057985;28;20913;-63
2022/01/01 11:02:52;;;;;;;3.27;2.13;;;20.60;89.80;;;;;;5054218;28;20396;-64
2022/01/01 11:05:35;;;;;;;3.73;3.53;;;20.30;90.00;;;;;;5054647;28;20382;-64
2022/01/01 11:08:04;;;;;;;2.10;1.80;;;20.00;90.40;;;;;;5054627;28;20434;-66
2022/01/01 11:10:30;;;;;;;2.10;1.90;;;19.60;90.60;;;;;;5054866;28;20763;-64
2022/01/01 11:12:57;;;;;;;2.37;1.97;;;19.40;91.40;;;;;;5054373;28;20415;-64
2022/01/01 11:15:23;;;;;;;2.17;1.97;;;19.10;91.80;;;;;;5055119;28;20378;-62
2022/01/01 11:17:49;;;;;;;2.80;1.80;;;18.80;91.60;;;;;;5054482;28;20523;-64
2022/01/01 11:20:16;;;;;;;2.17;1.97;;;18.20;92.00;;;;;;5054756;28;20418;-65
2022/01/01 11:22:42;;;;;;;2.43;2.23;;;17.70;92.80;;;;;;5054201;28;20407;-63
2022/01/01 11:25:09;;;;;;;2.47;1.80;;;17.20;93.30;;;;;;5054503;28;20396;-63
2022/01/01 11:27:36;;;;;;;2.73;2.53;;;16.70;94.40;;;;;;5053724;28;20462;-64
2022/01/01 11:30:05;;;;;;;2.60;2.07;;;16.30;95.20;;;;;;5054879;28;20433;-65
2022/01/01 11:32:39;;;;;;;3.10;2.47;;;16.00;95.60;;;;;;5054503;28;20507;-64
2022/01/01 11:35:09;;;;;;;2.83;2.27;;;15.90;95.90;;;;;;5054400;28;20485;-63
2022/01/01 11:37:56;;;;;;;2.50;2.30;;;15.70;96.80;;;;;;5054466;28;20455;-62
2022/01/01 11:40:22;;;;;;;2.00;1.73;;;15.50;97.30;;;;;;5054417;28;20507;-62
2022/01/01 11:42:48;;;;;;;2.70;2.50;;;15.40;97.70;;;;;;5053451;28;20424;-63
2022/01/01 11:45:47;;;;;;;2.80;2.60;;;15.40;97.80;;;;;;5054198;28;20415;-64
2022/01/01 11:48:38;;;;;;;2.77;2.50;;;15.30;98.10;;;;;;5054223;28;20229;-64
2022/01/01 11:51:38;;;;;;;2.47;2.30;;;15.20;98.80;;;;;;5054455;28;20773;-64
2022/01/01 11:54:32;;;;;;;3.97;3.37;;;15.20;98.10;;;;;;5054064;28;20517;-62
2022/01/01 11:57:01;;;;;;;3.57;2.57;;;15.20;98.50;;;;;;5053757;28;20949;-62
2022/01/01 11:59:38;;;;;;;3.47;2.90;;;15.10;98.70;;;;;;5066052;28;20444;-64
2022/01/01 12:02:18;;;;;;;2.70;2.50;;;15.00;99.00;;;;;;5073419;28;20419;-63
2022/01/01 12:04:45;;;;;;;5.33;3.00;;;14.90;99.10;;;;;;5073400;28;20438;-64
2022/01/01 12:07:20;;;;;;;6.03;2.10;;;15.00;99.00;;;;;;5073321;28;20462;-63
2022/01/01 12:09:49;;;;;;;2.43;2.23;;;14.90;99.20;;;;;;5073224;28;20717;-63
2022/01/01 12:12:17;;;;;;;2.50;2.10;;;14.90;99.40;;;;;;5073357;28;20418;-63
2022/01/01 12:14:44;;;;;;;2.77;2.50;;;14.90;99.60;;;;;;5073537;28;20413;-63
2022/01/01 12:17:09;;;;;;;3.37;2.30;;;14.80;99.90;;;;;;5073549;28;20437;-63
2022/01/01 12:19:37;;;;;;;2.97;2.77;;;14.80;99.90;;;;;;5073419;28;20757;-63
2022/01/01 12:22:10;;;;;;;2.97;2.67;;;14.90;99.90;;;;;;5073166;28;20180;-64
2022/01/01 12:24:38;;;;;;;2.57;2.37;;;14.90;99.90;;;;;;5073577;28;20863;-64
2022/01/01 12:27:14;;;;;;;2.63;2.30;;;14.90;99.90;;;;;;5073228;28;20434;-63
2022/01/01 12:29:40;;;;;;;7.70;4.17;;;14.90;99.90;;;;;;5073270;28;20446;-64
2022/01/01 12:32:08;;;;;;;2.83;2.20;;;14.90;99.90;;;;;;5073058;28;20466;-64
2022/01/01 12:34:36;;;;;;;2.60;2.40;;;14.90;99.90;;;;;;5073290;28;20452;-64
2022/01/01 12:37:05;;;;;;;3.40;2.80;;;14.90;99.90;;;;;;5073002;28;20434;-64
2022/01/01 12:40:01;;;;;;;2.23;2.10;;;14.90;99.90;;;;;;5072852;28;20403;-62
2022/01/01 12:42:29;;;;;;;3.13;2.00;;;14.90;99.90;;;;;;5072865;28;20494;-63
2022/01/01 12:44:59;;;;;;;2.60;2.40;;;14.90;99.90;;;;;;5073354;28;20446;-65
2022/01/01 12:47:28;;;;;;;3.27;3.00;;;14.90;99.90;;;;;;5072981;28;20454;-62